sensor_id;sensor_type;location;lat;lon;timestamp;temperature;humidity
12704;DHT22;6416;52.182;7.650;2023-01-10T00:02:25;9.60;84.20
12704;DHT22;6416;52.182;7.650;2023-01-10T00:04:50;9.60;84.20
12704;DHT22;6416;52.182;7.650;2023-01-10T00:07:16;9.60;84.20
12704;DHT22;6416;52.182;7.650;2023-01-10T00:09:41;9.60;84.30
12704;DHT22;6416;52.182;7.650;2023-01-10T00:12:06;9.60;84.40
12704;DHT22;6416;52.182;7.650;2023-01-10T00:14:32;9.60;84.50
12704;DHT22;6416;52.182;7.650;2023-01-10T00:16:57;9.60;84.60
12704;DHT22;6416;52.182;7.650;2023-01-10T00:19:26;9.60;84.80
12704;DHT22;6416;52.182;7.650;2023-01-10T00:21:52;9.60;84.80
12704;DHT22;6416;52.182;7.650;2023-01-10T00:24:17;9.60;84.80
12704;DHT22;6416;52.182;7.650;2023-01-10T00:26:44;9.60;84.60
12704;DHT22;6416;52.182;7.650;2023-01-10T00:29:10;9.60;84.50
12704;DHT22;6416;52.182;7.650;2023-01-10T00:31:35;9.60;84.40
12704;DHT22;6416;52.182;7.650;2023-01-10T00:34:01;9.60;84.60
12704;DHT22;6416;52.182;7.650;2023-01-10T00:36:26;9.60;84.60
12704;DHT22;6416;52.182;7.650;2023-01-10T00:38:52;9.60;84.70
12704;DHT22;6416;52.182;7.650;2023-01-10T00:41:17;9.60;84.70
12704;DHT22;6416;52.182;7.650;2023-01-10T00:43:43;9.60;84.80
12704;DHT22;6416;52.182;7.650;2023-01-10T00:46:09;9.60;84.80
12704;DHT22;6416;52.182;7.650;2023-01-10T00:48:34;9.60;84.90
12704;DHT22;6416;52.182;7.650;2023-01-10T00:51:01;9.60;84.90
12704;DHT22;6416;52.182;7.650;2023-01-10T00:53:27;9.60;84.80
12704;DHT22;6416;52.182;7.650;2023-01-10T00:55:53;9.60;84.90
12704;DHT22;6416;52.182;7.650;2023-01-10T00:58:18;9.60;84.60
12704;DHT22;6416;52.182;7.650;2023-01-10T01:00:44;9.60;84.30
12704;DHT22;6416;52.182;7.650;2023-01-10T01:03:09;9.60;84.30
12704;DHT22;6416;52.182;7.650;2023-01-10T01:05:42;9.60;85.30
12704;DHT22;6416;52.182;7.650;2023-01-10T01:08:09;9.60;84.30
12704;DHT22;6416;52.182;7.650;2023-01-10T01:10:35;9.50;84.10
12704;DHT22;6416;52.182;7.650;2023-01-10T01:13:09;9.50;83.50
12704;DHT22;6416;52.182;7.650;2023-01-10T01:15:35;9.50;82.90
12704;DHT22;6416;52.182;7.650;2023-01-10T01:18:01;9.40;82.40
12704;DHT22;6416;52.182;7.650;2023-01-10T01:20:27;9.40;82.10
12704;DHT22;6416;52.182;7.650;2023-01-10T01:22:53;9.30;81.80
12704;DHT22;6416;52.182;7.650;2023-01-10T01:25:18;9.20;81.60
12704;DHT22;6416;52.182;7.650;2023-01-10T01:27:44;9.20;81.60
12704;DHT22;6416;52.182;7.650;2023-01-10T01:30:11;9.10;81.70
12704;DHT22;6416;52.182;7.650;2023-01-10T01:32:37;9.10;82.20
12704;DHT22;6416;52.182;7.650;2023-01-10T01:35:03;9.00;82.80
12704;DHT22;6416;52.182;7.650;2023-01-10T01:37:28;9.00;83.30
12704;DHT22;6416;52.182;7.650;2023-01-10T01:39:54;9.00;83.80
12704;DHT22;6416;52.182;7.650;2023-01-10T01:42:29;9.00;84.20
12704;DHT22;6416;52.182;7.650;2023-01-10T01:47:35;9.10;84.40
12704;DHT22;6416;52.182;7.650;2023-01-10T01:50:03;9.10;84.70
12704;DHT22;6416;52.182;7.650;2023-01-10T01:52:31;9.10;84.80
12704;DHT22;6416;52.182;7.650;2023-01-10T01:54:58;9.10;84.70
12704;DHT22;6416;52.182;7.650;2023-01-10T01:57:26;9.20;84.80
12704;DHT22;6416;52.182;7.650;2023-01-10T01:59:54;9.20;84.70
12704;DHT22;6416;52.182;7.650;2023-01-10T02:02:29;9.20;84.70
12704;DHT22;6416;52.182;7.650;2023-01-10T02:04:56;9.20;84.50
12704;DHT22;6416;52.182;7.650;2023-01-10T02:07:23;9.20;84.60
12704;DHT22;6416;52.182;7.650;2023-01-10T02:12:40;9.20;84.30
12704;DHT22;6416;52.182;7.650;2023-01-10T02:15:06;9.20;84.40
12704;DHT22;6416;52.182;7.650;2023-01-10T02:17:32;9.30;84.40
12704;DHT22;6416;52.182;7.650;2023-01-10T02:20:04;9.20;84.30
12704;DHT22;6416;52.182;7.650;2023-01-10T02:31:29;9.30;83.60
12704;DHT22;6416;52.182;7.650;2023-01-10T02:37:04;9.20;83.70
12704;DHT22;6416;52.182;7.650;2023-01-10T02:39:57;9.20;83.60
12704;DHT22;6416;52.182;7.650;2023-01-10T02:42:32;9.20;83.30
12704;DHT22;6416;52.182;7.650;2023-01-10T02:45:28;9.20;83.50
12704;DHT22;6416;52.182;7.650;2023-01-10T02:47:55;9.20;82.60
12704;DHT22;6416;52.182;7.650;2023-01-10T02:53:15;9.10;81.80
12704;DHT22;6416;52.182;7.650;2023-01-10T03:07:45;8.80;81.90
12704;DHT22;6416;52.182;7.650;2023-01-10T03:09:57;8.80;82.00
12704;DHT22;6416;52.182;7.650;2023-01-10T03:12:38;8.80;82.00
12704;DHT22;6416;52.182;7.650;2023-01-10T03:15:07;8.70;82.20
12704;DHT22;6416;52.182;7.650;2023-01-10T03:17:36;8.70;82.60
12704;DHT22;6416;52.182;7.650;2023-01-10T03:20:04;8.70;82.50
12704;DHT22;6416;52.182;7.650;2023-01-10T03:22:30;8.70;82.30
12704;DHT22;6416;52.182;7.650;2023-01-10T03:24:58;8.60;82.00
12704;DHT22;6416;52.182;7.650;2023-01-10T03:32:38;8.50;80.80
12704;DHT22;6416;52.182;7.650;2023-01-10T03:35:05;8.50;80.90
12704;DHT22;6416;52.182;7.650;2023-01-10T03:37:53;8.40;80.90
12704;DHT22;6416;52.182;7.650;2023-01-10T03:40:45;8.40;80.70
12704;DHT22;6416;52.182;7.650;2023-01-10T03:43:40;8.30;80.70
12704;DHT22;6416;52.182;7.650;2023-01-10T03:46:14;8.30;80.70
12704;DHT22;6416;52.182;7.650;2023-01-10T03:48:44;8.20;80.60
12704;DHT22;6416;52.182;7.650;2023-01-10T03:51:11;8.20;80.80
12704;DHT22;6416;52.182;7.650;2023-01-10T03:53:38;8.20;80.90
12704;DHT22;6416;52.182;7.650;2023-01-10T03:56:05;8.10;80.80
12704;DHT22;6416;52.182;7.650;2023-01-10T03:58:30;8.10;80.80
12704;DHT22;6416;52.182;7.650;2023-01-10T04:00:56;8.00;80.80
12704;DHT22;6416;52.182;7.650;2023-01-10T04:03:21;8.00;81.00
12704;DHT22;6416;52.182;7.650;2023-01-10T04:05:47;8.00;81.00
12704;DHT22;6416;52.182;7.650;2023-01-10T04:08:12;7.90;81.10
12704;DHT22;6416;52.182;7.650;2023-01-10T04:10:38;7.90;81.10
12704;DHT22;6416;52.182;7.650;2023-01-10T04:13:04;7.90;80.90
12704;DHT22;6416;52.182;7.650;2023-01-10T04:15:30;7.90;80.80
12704;DHT22;6416;52.182;7.650;2023-01-10T04:17:56;7.80;80.80
12704;DHT22;6416;52.182;7.650;2023-01-10T04:20:22;7.80;80.90
12704;DHT22;6416;52.182;7.650;2023-01-10T04:22:47;7.80;81.20
12704;DHT22;6416;52.182;7.650;2023-01-10T04:25:13;7.80;81.60
12704;DHT22;6416;52.182;7.650;2023-01-10T04:27:38;7.80;82.00
12704;DHT22;6416;52.182;7.650;2023-01-10T04:30:04;7.80;82.20
12704;DHT22;6416;52.182;7.650;2023-01-10T04:32:30;7.80;82.50
12704;DHT22;6416;52.182;7.650;2023-01-10T04:34:55;7.80;82.40
12704;DHT22;6416;52.182;7.650;2023-01-10T04:37:21;7.80;82.20
12704;DHT22;6416;52.182;7.650;2023-01-10T04:39:46;7.80;82.40
12704;DHT22;6416;52.182;7.650;2023-01-10T04:42:12;7.80;82.80
12704;DHT22;6416;52.182;7.650;2023-01-10T04:44:37;7.80;83.20
12704;DHT22;6416;52.182;7.650;2023-01-10T04:47:02;7.90;83.80
12704;DHT22;6416;52.182;7.650;2023-01-10T04:49:28;7.90;84.40
12704;DHT22;6416;52.182;7.650;2023-01-10T04:51:53;8.00;84.70
12704;DHT22;6416;52.182;7.650;2023-01-10T04:54:20;8.00;84.90
12704;DHT22;6416;52.182;7.650;2023-01-10T04:56:46;8.10;85.10
12704;DHT22;6416;52.182;7.650;2023-01-10T04:59:12;8.10;85.20
12704;DHT22;6416;52.182;7.650;2023-01-10T05:01:37;8.20;85.20
12704;DHT22;6416;52.182;7.650;2023-01-10T05:04:03;8.20;85.00
12704;DHT22;6416;52.182;7.650;2023-01-10T05:06:29;8.20;84.60
12704;DHT22;6416;52.182;7.650;2023-01-10T05:08:55;8.30;84.50
12704;DHT22;6416;52.182;7.650;2023-01-10T05:11:20;8.30;84.50
12704;DHT22;6416;52.182;7.650;2023-01-10T05:13:46;8.30;84.40
12704;DHT22;6416;52.182;7.650;2023-01-10T05:16:11;8.30;84.00
12704;DHT22;6416;52.182;7.650;2023-01-10T05:18:37;8.30;83.60
12704;DHT22;6416;52.182;7.650;2023-01-10T05:21:05;8.30;83.70
12704;DHT22;6416;52.182;7.650;2023-01-10T05:23:31;8.30;83.90
12704;DHT22;6416;52.182;7.650;2023-01-10T05:25:56;8.30;84.20
12704;DHT22;6416;52.182;7.650;2023-01-10T05:28:22;8.30;84.60
12704;DHT22;6416;52.182;7.650;2023-01-10T05:30:48;8.40;84.80
12704;DHT22;6416;52.182;7.650;2023-01-10T05:33:14;8.40;84.90
12704;DHT22;6416;52.182;7.650;2023-01-10T05:35:39;8.40;84.60
12704;DHT22;6416;52.182;7.650;2023-01-10T05:38:05;8.40;84.20
12704;DHT22;6416;52.182;7.650;2023-01-10T05:40:30;8.40;83.70
12704;DHT22;6416;52.182;7.650;2023-01-10T05:42:55;8.40;83.50
12704;DHT22;6416;52.182;7.650;2023-01-10T05:45:21;8.40;83.10
12704;DHT22;6416;52.182;7.650;2023-01-10T05:47:46;8.30;82.60
12704;DHT22;6416;52.182;7.650;2023-01-10T05:50:12;8.30;82.40
12704;DHT22;6416;52.182;7.650;2023-01-10T05:52:37;8.30;82.30
12704;DHT22;6416;52.182;7.650;2023-01-10T05:55:03;8.20;82.20
12704;DHT22;6416;52.182;7.650;2023-01-10T05:57:29;8.20;82.50
12704;DHT22;6416;52.182;7.650;2023-01-10T05:59:54;8.20;83.00
12704;DHT22;6416;52.182;7.650;2023-01-10T06:02:19;8.20;83.60
12704;DHT22;6416;52.182;7.650;2023-01-10T06:04:45;8.20;83.80
12704;DHT22;6416;52.182;7.650;2023-01-10T06:07:10;7.90;85.90
12704;DHT22;6416;52.182;7.650;2023-01-10T06:09:36;8.00;85.60
12704;DHT22;6416;52.182;7.650;2023-01-10T06:12:01;8.10;85.50
12704;DHT22;6416;52.182;7.650;2023-01-10T06:14:27;8.20;85.40
12704;DHT22;6416;52.182;7.650;2023-01-10T06:16:52;8.30;85.30
12704;DHT22;6416;52.182;7.650;2023-01-10T06:19:18;8.30;85.20
12704;DHT22;6416;52.182;7.650;2023-01-10T06:21:43;8.30;85.10
12704;DHT22;6416;52.182;7.650;2023-01-10T06:24:09;8.40;85.00
12704;DHT22;6416;52.182;7.650;2023-01-10T06:26:35;8.40;85.10
12704;DHT22;6416;52.182;7.650;2023-01-10T06:29:00;8.40;85.00
12704;DHT22;6416;52.182;7.650;2023-01-10T06:31:26;8.50;85.20
12704;DHT22;6416;52.182;7.650;2023-01-10T06:33:52;8.50;85.20
12704;DHT22;6416;52.182;7.650;2023-01-10T06:36:17;8.50;85.10
12704;DHT22;6416;52.182;7.650;2023-01-10T06:38:43;8.50;85.00
12704;DHT22;6416;52.182;7.650;2023-01-10T06:41:08;8.60;84.80
12704;DHT22;6416;52.182;7.650;2023-01-10T06:43:34;8.60;84.50
12704;DHT22;6416;52.182;7.650;2023-01-10T06:45:59;8.60;84.50
12704;DHT22;6416;52.182;7.650;2023-01-10T06:48:25;8.60;84.30
12704;DHT22;6416;52.182;7.650;2023-01-10T06:50:50;8.60;84.20
12704;DHT22;6416;52.182;7.650;2023-01-10T06:53:16;8.60;84.40
12704;DHT22;6416;52.182;7.650;2023-01-10T06:55:43;8.60;84.40
12704;DHT22;6416;52.182;7.650;2023-01-10T06:58:09;8.60;84.40
12704;DHT22;6416;52.182;7.650;2023-01-10T07:00:34;8.50;84.40
12704;DHT22;6416;52.182;7.650;2023-01-10T07:03:01;8.50;84.50
12704;DHT22;6416;52.182;7.650;2023-01-10T07:05:26;8.50;84.50
12704;DHT22;6416;52.182;7.650;2023-01-10T07:07:52;8.50;84.60
12704;DHT22;6416;52.182;7.650;2023-01-10T07:10:17;8.50;84.60
12704;DHT22;6416;52.182;7.650;2023-01-10T07:12:43;8.50;84.30
12704;DHT22;6416;52.182;7.650;2023-01-10T07:15:09;8.50;83.90
12704;DHT22;6416;52.182;7.650;2023-01-10T07:17:34;8.50;84.30
12704;DHT22;6416;52.182;7.650;2023-01-10T07:20:00;8.50;83.90
12704;DHT22;6416;52.182;7.650;2023-01-10T07:22:25;8.50;83.90
12704;DHT22;6416;52.182;7.650;2023-01-10T07:24:51;8.50;84.10
12704;DHT22;6416;52.182;7.650;2023-01-10T07:27:16;8.40;84.30
12704;DHT22;6416;52.182;7.650;2023-01-10T07:29:42;8.50;84.70
12704;DHT22;6416;52.182;7.650;2023-01-10T07:32:07;8.50;84.90
12704;DHT22;6416;52.182;7.650;2023-01-10T07:34:33;8.50;85.20
12704;DHT22;6416;52.182;7.650;2023-01-10T07:36:58;8.60;85.10
12704;DHT22;6416;52.182;7.650;2023-01-10T07:39:25;8.50;84.80
12704;DHT22;6416;52.182;7.650;2023-01-10T07:41:50;8.60;84.80
12704;DHT22;6416;52.182;7.650;2023-01-10T07:44:16;8.60;84.70
12704;DHT22;6416;52.182;7.650;2023-01-10T07:46:41;8.60;84.80
12704;DHT22;6416;52.182;7.650;2023-01-10T07:49:07;8.60;85.00
12704;DHT22;6416;52.182;7.650;2023-01-10T07:51:33;8.60;85.00
12704;DHT22;6416;52.182;7.650;2023-01-10T07:53:58;8.60;85.30
12704;DHT22;6416;52.182;7.650;2023-01-10T07:56:24;8.70;85.40
12704;DHT22;6416;52.182;7.650;2023-01-10T07:58:49;8.70;85.30
12704;DHT22;6416;52.182;7.650;2023-01-10T08:01:15;8.70;86.00
12704;DHT22;6416;52.182;7.650;2023-01-10T08:03:41;8.70;85.20
12704;DHT22;6416;52.182;7.650;2023-01-10T08:06:08;8.80;85.40
12704;DHT22;6416;52.182;7.650;2023-01-10T08:08:34;8.80;85.30
12704;DHT22;6416;52.182;7.650;2023-01-10T08:11:00;8.80;85.40
12704;DHT22;6416;52.182;7.650;2023-01-10T08:13:26;8.80;85.20
12704;DHT22;6416;52.182;7.650;2023-01-10T08:15:51;8.90;85.30
12704;DHT22;6416;52.182;7.650;2023-01-10T08:18:20;8.70;84.80
12704;DHT22;6416;52.182;7.650;2023-01-10T08:20:50;8.90;85.00
12704;DHT22;6416;52.182;7.650;2023-01-10T08:23:17;8.90;84.90
12704;DHT22;6416;52.182;7.650;2023-01-10T08:25:42;8.90;85.00
12704;DHT22;6416;52.182;7.650;2023-01-10T08:28:08;8.90;85.00
12704;DHT22;6416;52.182;7.650;2023-01-10T08:30:34;9.00;85.20
12704;DHT22;6416;52.182;7.650;2023-01-10T08:33:04;9.00;85.40
12704;DHT22;6416;52.182;7.650;2023-01-10T08:35:29;9.00;85.30
12704;DHT22;6416;52.182;7.650;2023-01-10T08:37:59;9.00;85.40
12704;DHT22;6416;52.182;7.650;2023-01-10T08:40:25;9.10;85.40
12704;DHT22;6416;52.182;7.650;2023-01-10T08:43:04;9.10;85.50
12704;DHT22;6416;52.182;7.650;2023-01-10T08:45:30;9.20;85.00
12704;DHT22;6416;52.182;7.650;2023-01-10T08:47:56;9.20;85.40
12704;DHT22;6416;52.182;7.650;2023-01-10T08:50:22;9.20;85.30
12704;DHT22;6416;52.182;7.650;2023-01-10T08:52:48;9.20;85.20
12704;DHT22;6416;52.182;7.650;2023-01-10T08:55:13;9.30;85.20
12704;DHT22;6416;52.182;7.650;2023-01-10T08:57:39;9.30;85.20
12704;DHT22;6416;52.182;7.650;2023-01-10T09:00:05;9.30;85.00
12704;DHT22;6416;52.182;7.650;2023-01-10T09:02:30;9.30;84.90
12704;DHT22;6416;52.182;7.650;2023-01-10T09:04:56;9.40;85.00
12704;DHT22;6416;52.182;7.650;2023-01-10T09:07:22;9.40;85.20
12704;DHT22;6416;52.182;7.650;2023-01-10T09:09:47;9.40;85.50
12704;DHT22;6416;52.182;7.650;2023-01-10T09:12:13;9.50;85.60
12704;DHT22;6416;52.182;7.650;2023-01-10T09:14:38;9.50;85.50
12704;DHT22;6416;52.182;7.650;2023-01-10T09:17:04;9.60;85.70
12704;DHT22;6416;52.182;7.650;2023-01-10T09:19:29;9.60;86.00
12704;DHT22;6416;52.182;7.650;2023-01-10T09:21:55;9.70;86.10
12704;DHT22;6416;52.182;7.650;2023-01-10T09:24:20;9.80;86.80
12704;DHT22;6416;52.182;7.650;2023-01-10T09:26:45;9.80;85.80
12704;DHT22;6416;52.182;7.650;2023-01-10T09:29:11;9.90;85.70
12704;DHT22;6416;52.182;7.650;2023-01-10T09:31:36;10.00;85.00
12704;DHT22;6416;52.182;7.650;2023-01-10T09:34:02;10.00;85.00
12704;DHT22;6416;52.182;7.650;2023-01-10T09:36:27;10.20;85.40
12704;DHT22;6416;52.182;7.650;2023-01-10T09:38:53;10.30;86.20
12704;DHT22;6416;52.182;7.650;2023-01-10T09:44:05;10.60;85.70
12704;DHT22;6416;52.182;7.650;2023-01-10T09:49:38;11.00;86.60
12704;DHT22;6416;52.182;7.650;2023-01-10T09:52:15;11.20;86.30
12704;DHT22;6416;52.182;7.650;2023-01-10T09:54:45;11.40;85.00
12704;DHT22;6416;52.182;7.650;2023-01-10T09:57:15;11.40;84.80
12704;DHT22;6416;52.182;7.650;2023-01-10T09:59:42;11.50;83.70
12704;DHT22;6416;52.182;7.650;2023-01-10T10:04:58;11.50;81.60
12704;DHT22;6416;52.182;7.650;2023-01-10T10:07:25;11.50;81.90
12704;DHT22;6416;52.182;7.650;2023-01-10T10:09:50;11.50;82.40
12704;DHT22;6416;52.182;7.650;2023-01-10T10:12:24;11.40;82.30
12704;DHT22;6416;52.182;7.650;2023-01-10T10:14:57;11.40;81.40
12704;DHT22;6416;52.182;7.650;2023-01-10T10:17:31;11.40;81.30
12704;DHT22;6416;52.182;7.650;2023-01-10T10:23:09;11.30;80.60
12704;DHT22;6416;52.182;7.650;2023-01-10T10:26:00;11.30;80.10
12704;DHT22;6416;52.182;7.650;2023-01-10T10:34:18;11.10;80.40
12704;DHT22;6416;52.182;7.650;2023-01-10T10:36:56;11.10;81.10
12704;DHT22;6416;52.182;7.650;2023-01-10T10:39:32;11.00;81.10
12704;DHT22;6416;52.182;7.650;2023-01-10T10:41:59;11.00;81.90
12704;DHT22;6416;52.182;7.650;2023-01-10T10:44:49;11.00;82.30
12704;DHT22;6416;52.182;7.650;2023-01-10T10:47:18;11.10;82.30
12704;DHT22;6416;52.182;7.650;2023-01-10T10:49:54;10.90;82.00
12704;DHT22;6416;52.182;7.650;2023-01-10T10:52:24;11.00;82.50
12704;DHT22;6416;52.182;7.650;2023-01-10T10:54:51;11.20;84.00
12704;DHT22;6416;52.182;7.650;2023-01-10T10:57:18;11.40;83.70
12704;DHT22;6416;52.182;7.650;2023-01-10T10:59:47;11.50;83.80
12704;DHT22;6416;52.182;7.650;2023-01-10T11:02:25;11.70;83.70
12704;DHT22;6416;52.182;7.650;2023-01-10T11:04:56;11.80;83.00
12704;DHT22;6416;52.182;7.650;2023-01-10T11:07:22;11.90;82.90
12704;DHT22;6416;52.182;7.650;2023-01-10T11:09:50;12.10;82.70
12704;DHT22;6416;52.182;7.650;2023-01-10T11:12:17;12.20;82.90
12704;DHT22;6416;52.182;7.650;2023-01-10T11:14:47;12.30;83.10
12704;DHT22;6416;52.182;7.650;2023-01-10T11:17:23;12.40;83.20
12704;DHT22;6416;52.182;7.650;2023-01-10T11:22:21;12.60;81.30
12704;DHT22;6416;52.182;7.650;2023-01-10T11:24:53;12.70;81.40
12704;DHT22;6416;52.182;7.650;2023-01-10T11:27:22;12.80;79.80
12704;DHT22;6416;52.182;7.650;2023-01-10T11:29:52;12.70;79.90
12704;DHT22;6416;52.182;7.650;2023-01-10T11:32:25;12.70;79.80
12704;DHT22;6416;52.182;7.650;2023-01-10T11:34:56;12.70;79.50
12704;DHT22;6416;52.182;7.650;2023-01-10T11:40:17;12.60;78.60
12704;DHT22;6416;52.182;7.650;2023-01-10T11:42:43;12.60;76.60
12704;DHT22;6416;52.182;7.650;2023-01-10T11:50:41;12.40;78.00
12704;DHT22;6416;52.182;7.650;2023-01-10T11:56:00;12.40;76.80
12704;DHT22;6416;52.182;7.650;2023-01-10T11:58:30;12.30;78.30
12704;DHT22;6416;52.182;7.650;2023-01-10T12:00:57;12.30;77.80
12704;DHT22;6416;52.182;7.650;2023-01-10T12:03:34;12.30;78.20
12704;DHT22;6416;52.182;7.650;2023-01-10T12:06:03;12.20;76.70
12704;DHT22;6416;52.182;7.650;2023-01-10T12:08:35;12.20;78.10
12704;DHT22;6416;52.182;7.650;2023-01-10T12:11:06;12.20;77.40
12704;DHT22;6416;52.182;7.650;2023-01-10T12:13:51;12.10;77.70
12704;DHT22;6416;52.182;7.650;2023-01-10T12:16:18;12.10;76.90
12704;DHT22;6416;52.182;7.650;2023-01-10T12:18:44;12.10;77.80
12704;DHT22;6416;52.182;7.650;2023-01-10T12:21:12;12.00;77.40
12704;DHT22;6416;52.182;7.650;2023-01-10T12:23:40;12.00;77.00
12704;DHT22;6416;52.182;7.650;2023-01-10T12:26:07;12.00;76.80
12704;DHT22;6416;52.182;7.650;2023-01-10T12:28:35;11.90;76.60
12704;DHT22;6416;52.182;7.650;2023-01-10T12:31:01;11.90;76.80
12704;DHT22;6416;52.182;7.650;2023-01-10T12:33:34;11.90;76.90
12704;DHT22;6416;52.182;7.650;2023-01-10T12:38:42;11.80;76.40
12704;DHT22;6416;52.182;7.650;2023-01-10T12:41:10;11.80;76.90
12704;DHT22;6416;52.182;7.650;2023-01-10T12:43:41;11.80;76.80
12704;DHT22;6416;52.182;7.650;2023-01-10T12:46:28;11.80;76.60
12704;DHT22;6416;52.182;7.650;2023-01-10T12:49:03;11.70;76.50
12704;DHT22;6416;52.182;7.650;2023-01-10T12:51:33;11.70;76.60
12704;DHT22;6416;52.182;7.650;2023-01-10T12:54:06;11.70;76.70
12704;DHT22;6416;52.182;7.650;2023-01-10T12:56:36;11.70;76.20
12704;DHT22;6416;52.182;7.650;2023-01-10T12:59:09;11.60;77.10
12704;DHT22;6416;52.182;7.650;2023-01-10T13:01:38;11.60;76.30
12704;DHT22;6416;52.182;7.650;2023-01-10T13:04:08;11.60;76.40
12704;DHT22;6416;52.182;7.650;2023-01-10T13:06:39;11.60;76.10
12704;DHT22;6416;52.182;7.650;2023-01-10T13:09:16;11.60;75.60
12704;DHT22;6416;52.182;7.650;2023-01-10T13:14:56;11.50;75.90
12704;DHT22;6416;52.182;7.650;2023-01-10T13:22:42;11.40;75.60
12704;DHT22;6416;52.182;7.650;2023-01-10T13:25:34;11.40;76.30
12704;DHT22;6416;52.182;7.650;2023-01-10T13:28:15;11.40;75.80
12704;DHT22;6416;52.182;7.650;2023-01-10T13:30:42;11.40;76.00
12704;DHT22;6416;52.182;7.650;2023-01-10T13:33:20;11.30;76.50
12704;DHT22;6416;52.182;7.650;2023-01-10T13:35:47;11.30;75.80
12704;DHT22;6416;52.182;7.650;2023-01-10T13:38:18;11.30;76.40
12704;DHT22;6416;52.182;7.650;2023-01-10T13:41:10;11.30;76.30
12704;DHT22;6416;52.182;7.650;2023-01-10T13:44:00;11.30;75.60
12704;DHT22;6416;52.182;7.650;2023-01-10T13:51:20;11.30;75.80
12704;DHT22;6416;52.182;7.650;2023-01-10T13:56:50;11.30;75.80
12704;DHT22;6416;52.182;7.650;2023-01-10T14:01:52;11.20;75.50
12704;DHT22;6416;52.182;7.650;2023-01-10T14:04:22;11.20;75.90
12704;DHT22;6416;52.182;7.650;2023-01-10T14:06:57;11.20;76.00
12704;DHT22;6416;52.182;7.650;2023-01-10T14:11:59;11.20;76.20
12704;DHT22;6416;52.182;7.650;2023-01-10T14:17:41;11.20;76.00
12704;DHT22;6416;52.182;7.650;2023-01-10T14:19:44;11.10;75.90
12704;DHT22;6416;52.182;7.650;2023-01-10T14:22:29;11.20;76.00
12704;DHT22;6416;52.182;7.650;2023-01-10T14:24:55;11.20;75.70
12704;DHT22;6416;52.182;7.650;2023-01-10T14:27:21;11.10;75.80
12704;DHT22;6416;52.182;7.650;2023-01-10T14:29:55;11.10;75.70
12704;DHT22;6416;52.182;7.650;2023-01-10T14:34:54;11.10;75.50
12704;DHT22;6416;52.182;7.650;2023-01-10T14:37:24;11.10;75.90
12704;DHT22;6416;52.182;7.650;2023-01-10T14:39:52;11.10;75.70
12704;DHT22;6416;52.182;7.650;2023-01-10T14:42:19;11.10;75.90
12704;DHT22;6416;52.182;7.650;2023-01-10T14:44:52;11.00;75.70
12704;DHT22;6416;52.182;7.650;2023-01-10T14:47:29;11.00;75.10
12704;DHT22;6416;52.182;7.650;2023-01-10T14:49:56;11.00;75.70
12704;DHT22;6416;52.182;7.650;2023-01-10T14:52:23;11.00;75.90
12704;DHT22;6416;52.182;7.650;2023-01-10T14:57:33;11.00;75.00
12704;DHT22;6416;52.182;7.650;2023-01-10T15:00:13;11.00;75.50
12704;DHT22;6416;52.182;7.650;2023-01-10T15:02:47;11.00;75.20
12704;DHT22;6416;52.182;7.650;2023-01-10T15:05:19;11.00;75.40
12704;DHT22;6416;52.182;7.650;2023-01-10T15:07:45;11.00;75.60
12704;DHT22;6416;52.182;7.650;2023-01-10T15:10:27;11.00;75.80
12704;DHT22;6416;52.182;7.650;2023-01-10T15:12:56;11.00;75.10
12704;DHT22;6416;52.182;7.650;2023-01-10T15:15:35;11.00;75.80
12704;DHT22;6416;52.182;7.650;2023-01-10T15:18:05;11.00;75.30
12704;DHT22;6416;52.182;7.650;2023-01-10T15:20:32;11.00;75.40
12704;DHT22;6416;52.182;7.650;2023-01-10T15:23:00;11.00;75.40
12704;DHT22;6416;52.182;7.650;2023-01-10T15:25:30;11.00;75.40
12704;DHT22;6416;52.182;7.650;2023-01-10T15:27:57;10.90;75.40
12704;DHT22;6416;52.182;7.650;2023-01-10T15:30:28;11.00;75.50
12704;DHT22;6416;52.182;7.650;2023-01-10T15:33:00;10.90;75.40
12704;DHT22;6416;52.182;7.650;2023-01-10T15:35:27;10.90;75.00
12704;DHT22;6416;52.182;7.650;2023-01-10T15:38:07;10.90;75.40
12704;DHT22;6416;52.182;7.650;2023-01-10T15:40:37;10.90;75.20
12704;DHT22;6416;52.182;7.650;2023-01-10T15:43:25;10.90;75.20
12704;DHT22;6416;52.182;7.650;2023-01-10T15:45:52;10.90;74.80
12704;DHT22;6416;52.182;7.650;2023-01-10T15:48:39;10.90;75.00
12704;DHT22;6416;52.182;7.650;2023-01-10T15:51:29;11.00;74.70
12704;DHT22;6416;52.182;7.650;2023-01-10T15:54:05;11.00;73.90
12704;DHT22;6416;52.182;7.650;2023-01-10T15:59:01;10.90;74.30
12704;DHT22;6416;52.182;7.650;2023-01-10T16:01:27;10.90;74.30
12704;DHT22;6416;52.182;7.650;2023-01-10T16:04:04;10.90;74.40
12704;DHT22;6416;52.182;7.650;2023-01-10T16:06:37;10.90;72.50
12704;DHT22;6416;52.182;7.650;2023-01-10T16:09:06;10.90;73.80
12704;DHT22;6416;52.182;7.650;2023-01-10T16:11:45;10.90;73.70
12704;DHT22;6416;52.182;7.650;2023-01-10T16:14:11;11.00;73.20
12704;DHT22;6416;52.182;7.650;2023-01-10T16:16:37;11.00;73.70
12704;DHT22;6416;52.182;7.650;2023-01-10T16:19:02;11.00;73.70
12704;DHT22;6416;52.182;7.650;2023-01-10T16:21:35;11.00;73.70
12704;DHT22;6416;52.182;7.650;2023-01-10T16:24:03;11.00;73.20
12704;DHT22;6416;52.182;7.650;2023-01-10T16:26:29;11.00;73.20
12704;DHT22;6416;52.182;7.650;2023-01-10T16:28:55;11.00;73.20
12704;DHT22;6416;52.182;7.650;2023-01-10T16:31:20;11.00;73.10
12704;DHT22;6416;52.182;7.650;2023-01-10T16:33:46;11.00;72.80
12704;DHT22;6416;52.182;7.650;2023-01-10T16:36:16;11.00;72.90
12704;DHT22;6416;52.182;7.650;2023-01-10T16:38:43;11.00;72.00
12704;DHT22;6416;52.182;7.650;2023-01-10T16:41:10;11.00;72.10
12704;DHT22;6416;52.182;7.650;2023-01-10T16:43:35;11.00;72.00
12704;DHT22;6416;52.182;7.650;2023-01-10T16:46:01;11.00;72.20
12704;DHT22;6416;52.182;7.650;2023-01-10T16:48:28;11.00;71.80
12704;DHT22;6416;52.182;7.650;2023-01-10T16:50:55;11.00;71.10
12704;DHT22;6416;52.182;7.650;2023-01-10T16:53:28;11.00;71.40
12704;DHT22;6416;52.182;7.650;2023-01-10T16:55:53;11.00;70.40
12704;DHT22;6416;52.182;7.650;2023-01-10T16:58:19;10.90;70.40
12704;DHT22;6416;52.182;7.650;2023-01-10T17:00:49;10.90;70.50
12704;DHT22;6416;52.182;7.650;2023-01-10T17:03:19;10.90;69.90
12704;DHT22;6416;52.182;7.650;2023-01-10T17:05:45;10.90;70.80
12704;DHT22;6416;52.182;7.650;2023-01-10T17:08:20;10.80;70.50
12704;DHT22;6416;52.182;7.650;2023-01-10T17:10:49;10.80;70.40
12704;DHT22;6416;52.182;7.650;2023-01-10T17:13:23;10.80;70.60
12704;DHT22;6416;52.182;7.650;2023-01-10T17:15:49;10.80;70.20
12704;DHT22;6416;52.182;7.650;2023-01-10T17:18:15;10.80;70.20
12704;DHT22;6416;52.182;7.650;2023-01-10T17:20:40;10.80;70.10
12704;DHT22;6416;52.182;7.650;2023-01-10T17:23:06;10.80;69.80
12704;DHT22;6416;52.182;7.650;2023-01-10T17:25:31;10.80;70.20
12704;DHT22;6416;52.182;7.650;2023-01-10T17:27:57;10.80;69.80
12704;DHT22;6416;52.182;7.650;2023-01-10T17:30:22;10.80;69.90
12704;DHT22;6416;52.182;7.650;2023-01-10T17:32:48;10.70;69.80
12704;DHT22;6416;52.182;7.650;2023-01-10T17:35:13;10.70;69.70
12704;DHT22;6416;52.182;7.650;2023-01-10T17:37:39;10.70;70.10
12704;DHT22;6416;52.182;7.650;2023-01-10T17:40:05;10.70;70.00
12704;DHT22;6416;52.182;7.650;2023-01-10T17:42:30;10.60;70.40
12704;DHT22;6416;52.182;7.650;2023-01-10T17:44:56;10.60;70.50
12704;DHT22;6416;52.182;7.650;2023-01-10T17:47:21;10.50;70.80